Time;durP1;ratioP1;P1;durP2;ratioP2;P2;SDS_P1;SDS_P2;PMS_P1;PMS_P2;Temp;Humidity;BMP_temperature;BMP_pressure;BME280_temperature;BME280_humidity;BME280_pressure;Samples;Min_cycle;Max_cycle;Signal;HPM_P1;HPM_P2
2022/11/25 00:01:29;;;;;;;3.73;1.67;;;;;;;11.35;50.72;98576.06;6278388;22;20150;-90
2022/11/25 00:03:56;;;;;;;3.17;1.30;;;;;;;11.42;50.29;98578.22;6251722;22;20487;-91
2022/11/25 00:06:29;;;;;;;2.97;1.27;;;;;;;11.41;50.45;98576.53;6251827;22;20193;-90
2022/11/25 00:09:02;;;;;;;2.83;1.17;;;;;;;11.03;51.46;98567.66;6279195;22;20168;-92
2022/11/25 00:11:28;;;;;;;2.97;1.40;;;;;;;11.19;50.87;98564.91;6278306;22;20218;-90
2022/11/25 00:13:56;;;;;;;2.87;1.40;;;;;;;11.11;51.09;98570.63;6251613;22;20150;-91
2022/11/25 00:16:23;;;;;;;2.40;0.93;;;;;;;11.21;50.87;98568.28;6251487;22;20251;-91
2022/11/25 00:18:50;;;;;;;2.97;1.13;;;;;;;11.17;51.67;98566.78;6278383;22;20157;-91
2022/11/25 00:21:19;;;;;;;2.93;1.20;;;;;;;11.18;51.16;98571.94;6252633;22;20152;-90
2022/11/25 00:23:53;;;;;;;3.93;1.30;;;;;;;11.16;51.55;98575.59;6278346;22;20207;-91
2022/11/25 00:26:19;;;;;;;1.97;1.10;;;;;;;10.81;52.06;98580.44;6278432;22;20168;-92
2022/11/25 00:28:46;;;;;;;1.87;0.90;;;;;;;10.95;52.06;98575.19;6278583;22;20165;-90
2022/11/25 00:31:14;;;;;;;2.27;0.97;;;;;;;11.10;51.88;98576.81;6251513;22;20163;-92
2022/11/25 00:33:40;;;;;;;10.63;4.17;;;;;;;10.97;51.87;98584.63;6251429;22;20600;-91
2022/11/25 00:36:24;;;;;;;2.70;1.23;;;;;;;11.17;51.89;98585.97;6278103;22;20140;-91
2022/11/25 00:39:05;;;;;;;2.47;1.40;;;;;;;11.10;51.55;98577.69;6251250;22;20140;-91
2022/11/25 00:44:35;;;;;;;1.80;1.00;;;;;;;10.94;52.45;98576.94;6278355;22;20460;-89
2022/11/25 00:47:10;;;;;;;1.70;1.10;;;;;;;11.16;51.86;98573.81;6278325;22;20347;-91
2022/11/25 00:49:37;;;;;;;2.17;1.03;;;;;;;11.36;51.54;98577.78;6277690;22;20157;-90
2022/11/25 00:52:04;;;;;;;2.53;1.00;;;;;;;11.25;51.23;98583.72;6277805;22;20148;-91
2022/11/25 00:54:29;;;;;;;2.10;1.03;;;;;;;11.25;51.25;98572.38;6278077;22;20189;-91
2022/11/25 00:56:54;;;;;;;1.80;1.10;;;;;;;11.25;51.21;98585.47;6277763;22;20592;-89
2022/11/25 00:59:20;;;;;;;1.50;1.10;;;;;;;11.19;51.46;98576.22;6278087;22;20223;-91
2022/11/25 01:01:46;;;;;;;1.70;0.97;;;;;;;11.36;51.27;98576.00;6251538;22;20612;-91
2022/11/25 01:04:13;;;;;;;2.07;1.17;;;;;;;11.51;50.99;98582.88;6277660;22;20155;-90
2022/11/25 01:06:40;;;;;;;2.13;1.33;;;;;;;11.35;51.27;98576.94;6278014;22;20173;-91
2022/11/25 01:09:09;;;;;;;1.90;1.27;;;;;;;11.53;50.95;98585.41;6278185;22;20150;-91
2022/11/25 01:11:36;;;;;;;3.47;1.40;;;;;;;11.42;51.19;98578.22;6277879;22;20239;-90
2022/11/25 01:14:03;;;;;;;2.97;1.20;;;;;;;11.09;51.59;98575.13;6278220;22;20145;-91
2022/11/25 01:16:30;;;;;;;2.63;1.30;;;;;;;11.34;51.09;98591.00;6247534;22;20156;-90
2022/11/25 01:18:58;;;;;;;2.90;1.03;;;;;;;11.24;51.21;98574.16;6277922;22;20140;-90
2022/11/25 01:21:28;;;;;;;1.60;1.03;;;;;;;11.19;51.01;98581.47;6278118;22;20252;-90
2022/11/25 01:23:55;;;;;;;2.43;1.30;;;;;;;11.27;51.08;98586.25;6277969;22;20565;-91
2022/11/25 01:26:26;;;;;;;1.83;1.00;;;;;;;11.24;51.25;98578.56;6250879;22;20244;-92
2022/11/25 01:28:59;;;;;;;3.47;1.83;;;;;;;11.35;50.63;98582.19;6251669;22;20156;-91
2022/11/25 01:31:29;;;;;;;1.23;0.83;;;;;;;11.17;50.93;98575.50;6251292;22;20566;-90
2022/11/25 01:33:58;;;;;;;2.33;1.10;;;;;;;11.20;50.79;98580.53;6251899;22;20149;-91
2022/11/25 01:36:24;;;;;;;11.80;1.40;;;;;;;11.45;50.24;98585.06;6251039;22;20156;-92
2022/11/25 01:38:55;;;;;;;2.47;1.37;;;;;;;11.25;50.70;98573.22;6278689;22;20218;-91
2022/11/25 01:41:21;;;;;;;3.33;1.33;;;;;;;11.25;50.60;98580.25;6251236;22;20232;-91
2022/11/25 01:44:04;;;;;;;1.50;0.93;;;;;;;11.34;50.46;98575.25;6277888;22;20463;-91
2022/11/25 01:46:41;;;;;;;1.83;1.03;;;;;;;11.34;50.07;98577.88;6250908;22;20181;-92
2022/11/25 01:49:14;;;;;;;2.20;1.20;;;;;;;11.31;50.53;98575.47;6250744;22;20196;-91
2022/11/25 01:51:57;;;;;;;2.93;1.47;;;;;;;11.17;49.93;98577.25;6250801;22;20146;-91
2022/11/25 01:54:28;;;;;;;1.83;1.00;;;;;;;11.14;50.07;98572.25;6277328;22;20137;-91
2022/11/25 01:57:19;;;;;;;2.30;0.97;;;;;;;11.31;50.07;98575.47;6278055;22;20220;-90
2022/11/25 01:59:51;;;;;;;1.43;0.90;;;;;;;11.27;49.66;98581.00;6250841;22;20177;-90
2022/11/25 02:02:18;;;;;;;7.97;1.53;;;;;;;11.25;49.48;98581.09;6277506;22;20224;-91
2022/11/25 02:04:45;;;;;;;7.97;0.90;;;;;;;11.23;49.67;98585.59;6250569;22;20162;-91
2022/11/25 02:07:27;;;;;;;1.83;1.00;;;;;;;11.36;49.58;98583.88;6251548;22;20184;-89
2022/11/25 02:09:54;;;;;;;2.47;1.03;;;;;;;11.25;48.96;98591.59;6250415;22;20216;-90
2022/11/25 02:12:21;;;;;;;0.77;0.50;;;;;;;11.42;48.83;98587.88;6277198;22;20170;-91
2022/11/25 02:14:49;;;;;;;2.67;0.97;;;;;;;11.48;48.92;98585.69;6250502;22;20155;-91
2022/11/25 02:17:15;;;;;;;2.40;1.00;;;;;;;11.26;48.96;98589.81;6245286;23;20255;-89
2022/11/25 02:20:00;;;;;;;1.70;0.80;;;;;;;11.43;49.12;98587.78;6245391;23;20184;-91
2022/11/25 02:22:43;;;;;;;2.23;1.43;;;;;;;11.47;48.42;98584.03;6247167;22;20144;-90
2022/11/25 02:25:29;;;;;;;2.93;1.30;;;;;;;11.54;48.60;98593.19;6246725;22;20141;-91
2022/11/25 02:28:00;;;;;;;1.87;0.80;;;;;;;11.24;48.78;98595.13;6247001;22;20244;-89
2022/11/25 02:30:27;;;;;;;1.87;0.77;;;;;;;11.28;48.76;98586.13;6245204;23;20558;-90
2022/11/25 02:32:52;;;;;;;3.50;1.10;;;;;;;11.44;48.26;98594.72;6245313;23;20570;-91
2022/11/25 02:35:25;;;;;;;1.70;0.83;;;;;;;11.53;48.41;98590.66;6246992;22;20146;-90
2022/11/25 02:37:53;;;;;;;2.33;0.80;;;;;;;11.50;48.17;98591.66;6247178;22;20134;-90
2022/11/25 02:40:19;;;;;;;2.10;0.87;;;;;;;11.38;48.22;98587.22;6245119;23;20180;-90
2022/11/25 02:42:48;;;;;;;2.97;0.90;;;;;;;11.53;48.48;98594.09;6246413;22;20157;-90
2022/11/25 02:45:20;;;;;;;1.93;0.73;;;;;;;11.58;48.07;98583.31;6246170;22;20146;-91
2022/11/25 02:47:45;;;;;;;1.97;0.70;;;;;;;11.23;48.74;98588.22;6246106;22;20173;-89
2022/11/25 02:50:12;;;;;;;1.43;0.87;;;;;;;11.17;49.43;98593.84;6244927;23;20189;-90
2022/11/25 02:52:38;;;;;;;2.07;0.70;;;;;;;11.06;48.90;98591.91;6245033;23;20523;-89
2022/11/25 02:55:04;;;;;;;2.00;0.80;;;;;;;11.07;49.50;98596.22;6246200;22;20173;-90
2022/11/25 02:57:31;;;;;;;1.57;1.00;;;;;;;11.23;49.58;98588.22;6245020;23;20145;-91
2022/11/25 02:59:56;;;;;;;1.37;0.80;;;;;;;10.98;49.79;98593.31;6244919;23;20176;-90
2022/11/25 03:02:22;;;;;;;1.90;0.80;;;;;;;11.12;49.70;98590.69;6245940;23;20153;-90
2022/11/25 03:04:47;;;;;;;4.47;1.00;;;;;;;11.12;49.77;98601.16;6246070;22;20595;-90
2022/11/25 03:07:12;;;;;;;0.70;0.50;;;;;;;11.07;49.42;98601.47;6246088;23;20255;-89
2022/11/25 03:09:38;;;;;;;1.20;0.73;;;;;;;10.95;50.16;98604.84;6246099;23;20690;-90
2022/11/25 03:12:18;;;;;;;2.37;1.07;;;;;;;11.11;50.09;98604.72;6244978;23;20561;-90
2022/11/25 03:14:44;;;;;;;1.50;0.80;;;;;;;11.15;49.96;98608.84;6244622;22;20287;-90
2022/11/25 03:17:11;;;;;;;1.40;0.73;;;;;;;11.19;49.89;98612.13;6254858;22;20216;-90
2022/11/25 03:19:36;;;;;;;2.43;0.90;;;;;;;11.26;50.03;98624.75;6277148;22;20137;-90
2022/11/25 03:22:02;;;;;;;2.20;1.30;;;;;;;11.13;49.93;98620.38;6276574;22;20654;-89
2022/11/25 03:24:29;;;;;;;1.80;1.20;;;;;;;11.27;50.03;98621.19;6276671;22;20175;-90
2022/11/25 03:26:56;;;;;;;1.03;0.70;;;;;;;11.16;50.09;98623.66;6276419;22;20259;-89
2022/11/25 03:29:21;;;;;;;2.27;1.10;;;;;;;11.04;50.58;98617.38;6276917;22;20148;-90
2022/11/25 03:31:47;;;;;;;2.30;1.20;;;;;;;11.05;50.79;98629.56;6251174;22;20168;-90
2022/11/25 03:34:12;;;;;;;5.87;1.43;;;;;;;11.11;50.56;98617.84;6249815;22;20575;-89
2022/11/25 03:36:39;;;;;;;5.20;1.60;;;;;;;10.94;50.70;98621.53;6249987;22;20144;-90
2022/11/25 03:39:04;;;;;;;3.83;1.77;;;;;;;11.03;50.59;98618.31;6276716;22;20227;-89
2022/11/25 03:41:30;;;;;;;2.03;1.40;;;;;;;10.81;51.15;98614.50;6276631;22;20176;-89
2022/11/25 03:43:55;;;;;;;2.63;1.20;;;;;;;10.77;51.30;98626.13;6276858;22;20172;-90
2022/11/25 03:46:21;;;;;;;1.80;1.00;;;;;;;10.79;50.77;98621.63;6249590;22;20549;-90
2022/11/25 03:48:46;;;;;;;3.47;1.30;;;;;;;10.90;50.94;98627.06;6276892;22;20156;-90
2022/11/25 03:51:12;;;;;;;3.60;0.83;;;;;;;10.75;51.42;98622.75;6250130;22;20152;-89
2022/11/25 03:53:37;;;;;;;2.13;1.20;;;;;;;10.89;51.15;98635.84;6250237;22;20153;-91
2022/11/25 03:56:04;;;;;;;1.83;1.13;;;;;;;11.07;50.52;98634.72;6276517;22;20155;-91
2022/11/25 03:58:30;;;;;;;1.60;0.80;;;;;;;10.95;50.59;98635.50;6249656;22;20157;-89
2022/11/25 04:00:59;;;;;;;3.83;1.93;;;;;;;11.10;49.86;98640.63;6276622;22;20240;-90
2022/11/25 04:03:25;;;;;;;0.93;0.67;;;;;;;10.96;50.10;98627.50;6276634;22;20214;-89
2022/11/25 04:05:50;;;;;;;1.13;0.70;;;;;;;10.91;50.16;98644.47;6250385;22;20177;-91
2022/11/25 04:08:16;;;;;;;1.40;0.80;;;;;;;11.10;49.96;98645.03;6250277;22;20584;-91
2022/11/25 04:10:41;;;;;;;2.40;1.27;;;;;;;11.08;50.08;98647.72;6249881;22;20163;-90
2022/11/25 04:13:06;;;;;;;2.27;1.33;;;;;;;11.10;49.61;98642.41;6276400;22;20238;-91
2022/11/25 04:15:32;;;;;;;3.23;1.80;;;;;;;11.25;49.58;98646.66;6250118;22;20250;-90
2022/11/25 04:17:57;;;;;;;1.87;1.10;;;;;;;11.37;49.16;98638.00;6277667;22;20248;-91
2022/11/25 04:20:24;;;;;;;2.93;1.23;;;;;;;11.11;49.52;98644.06;6277426;22;20232;-91
2022/11/25 04:22:49;;;;;;;3.33;1.60;;;;;;;11.09;49.58;98649.41;6276986;22;20214;-90
2022/11/25 04:25:16;;;;;;;1.80;0.97;;;;;;;11.23;49.22;98643.31;6276756;22;20153;-92
2022/11/25 04:27:42;;;;;;;3.37;1.17;;;;;;;11.35;48.61;98624.16;6278169;22;20184;-90
2022/11/25 04:30:08;;;;;;;2.97;1.27;;;;;;;11.35;48.88;98647.78;6251704;22;20524;-91
2022/11/25 04:32:36;;;;;;;2.77;1.07;;;;;;;11.45;48.31;98648.88;6278165;22;20148;-91
2022/11/25 04:35:01;;;;;;;2.23;1.20;;;;;;;11.37;48.01;98643.25;6251713;22;20253;-91
2022/11/25 04:37:26;;;;;;;1.80;0.90;;;;;;;11.42;48.22;98648.25;6278113;22;20564;-91
2022/11/25 04:39:52;;;;;;;2.23;1.03;;;;;;;11.34;48.74;98653.13;6251459;22;20582;-89
2022/11/25 04:42:38;;;;;;;2.03;1.23;;;;;;;11.18;48.76;98647.16;6278286;22;20573;-91
2022/11/25 04:45:14;;;;;;;2.13;1.10;;;;;;;11.27;48.48;98652.66;6251473;22;20220;-91
2022/11/25 04:47:40;;;;;;;3.20;1.17;;;;;;;11.43;48.36;98655.16;6278578;22;20178;-91
2022/11/25 04:50:11;;;;;;;2.00;1.00;;;;;;;11.30;47.96;98647.22;6252173;22;20164;-91
2022/11/25 04:52:36;;;;;;;3.50;1.30;;;;;;;11.43;48.09;98653.38;6279088;22;20513;-90
2022/11/25 04:55:02;;;;;;;2.53;1.37;;;;;;;11.54;48.15;98653.53;6251376;22;20194;-91
2022/11/25 04:57:27;;;;;;;1.47;1.00;;;;;;;11.32;47.98;98660.25;6277897;22;20186;-91
2022/11/25 04:59:52;;;;;;;3.10;1.20;;;;;;;11.35;47.93;98655.63;6277897;22;20630;-90
2022/11/25 05:02:22;;;;;;;1.67;0.80;;;;;;;11.42;47.83;98671.84;6277891;22;20418;-90
2022/11/25 05:04:52;;;;;;;3.30;1.13;;;;;;;11.49;47.55;98666.13;6278248;22;20602;-91
2022/11/25 05:07:20;;;;;;;1.67;0.87;;;;;;;11.39;47.95;98677.28;6278231;22;20234;-90
2022/11/25 05:09:47;;;;;;;4.07;1.33;;;;;;;11.17;48.02;98677.78;6278581;22;20179;-90
2022/11/25 05:12:18;;;;;;;1.57;0.97;;;;;;;11.30;48.00;98683.94;6278357;22;20219;-91
2022/11/25 05:14:43;;;;;;;2.53;1.00;;;;;;;11.35;47.84;98681.88;6277949;22;20168;-91
2022/11/25 05:17:16;;;;;;;3.90;1.07;;;;;;;11.44;47.70;98690.97;6277836;22;20161;-88
2022/11/25 05:19:44;;;;;;;1.30;0.67;;;;;;;11.12;47.99;98695.59;6251120;22;20548;-90
2022/11/25 05:22:12;;;;;;;1.90;0.93;;;;;;;11.23;47.39;98694.94;6277865;22;20235;-90
2022/11/25 05:24:39;;;;;;;1.90;0.80;;;;;;;11.31;47.47;98705.78;6251476;22;20153;-90
2022/11/25 05:27:06;;;;;;;2.00;1.03;;;;;;;11.45;47.46;98703.16;6250870;22;20572;-88
2022/11/25 05:29:32;;;;;;;1.20;0.70;;;;;;;11.29;47.09;98711.16;6278025;22;20149;-90
2022/11/25 05:31:57;;;;;;;2.27;0.90;;;;;;;11.42;47.11;98712.06;6251070;22;20187;-89
2022/11/25 05:34:24;;;;;;;2.50;1.20;;;;;;;11.38;46.83;98713.19;6278084;22;20172;-90
2022/11/25 05:36:50;;;;;;;4.00;1.27;;;;;;;11.36;47.38;98720.31;6250690;22;20153;-91
2022/11/25 05:39:16;;;;;;;1.07;0.70;;;;;;;11.30;47.42;98727.69;6277499;22;20151;-91
2022/11/25 05:41:42;;;;;;;1.93;1.17;;;;;;;11.31;47.45;98722.38;6277531;22;20152;-90
2022/11/25 05:44:07;;;;;;;1.60;1.00;;;;;;;11.45;47.78;98730.22;6251363;22;20153;-91
2022/11/25 05:46:32;;;;;;;1.80;1.03;;;;;;;11.78;46.85;98732.53;6277457;22;20168;-90
2022/11/25 05:48:58;;;;;;;2.70;1.20;;;;;;;11.69;46.61;98735.75;6278164;22;20145;-90
2022/11/25 05:51:24;;;;;;;2.67;1.03;;;;;;;11.64;46.55;98735.16;6277744;22;20159;-90
2022/11/25 05:53:51;;;;;;;2.40;1.23;;;;;;;11.65;46.65;98721.97;6277389;22;20155;-91
2022/11/25 05:56:16;;;;;;;2.33;1.00;;;;;;;11.59;47.00;98745.97;6250740;22;20163;-91
2022/11/25 05:58:42;;;;;;;1.20;1.00;;;;;;;11.56;47.08;98743.53;6277872;22;20149;-91
2022/11/25 06:01:10;;;;;;;5.93;1.00;;;;;;;11.58;47.36;98751.31;6250863;22;20183;-90
2022/11/25 06:03:36;;;;;;;2.60;1.20;;;;;;;11.61;46.94;98740.59;6277552;22;20195;-90
2022/11/25 06:06:03;;;;;;;2.83;1.23;;;;;;;11.74;46.48;98751.22;6277477;22;20183;-89
2022/11/25 06:08:30;;;;;;;2.67;1.03;;;;;;;11.61;46.51;98751.09;6277765;22;20160;-91
2022/11/25 06:10:55;;;;;;;2.10;0.97;;;;;;;11.75;46.44;98764.25;6277051;22;20145;-90
2022/11/25 06:13:21;;;;;;;3.53;1.57;;;;;;;11.95;46.31;98776.94;6250602;22;20160;-91
2022/11/25 06:15:46;;;;;;;2.57;1.00;;;;;;;11.83;46.39;98775.09;6250369;22;20506;-90
2022/11/25 06:18:15;;;;;;;2.43;0.77;;;;;;;11.85;46.78;98780.25;6244654;23;20214;-90
2022/11/25 06:20:42;;;;;;;4.40;1.00;;;;;;;11.45;46.92;98792.38;6246203;22;20161;-91
2022/11/25 06:23:09;;;;;;;2.37;1.17;;;;;;;11.53;47.54;98793.56;6246370;22;20151;-93
2022/11/25 06:25:36;;;;;;;3.33;1.30;;;;;;;11.68;47.10;98803.19;6245767;23;20157;-91
2022/11/25 06:28:03;;;;;;;2.80;1.00;;;;;;;11.70;47.08;98798.66;6245201;23;20181;-91
2022/11/25 06:30:30;;;;;;;2.10;1.00;;;;;;;11.84;46.51;98815.34;6245441;23;20149;-92
2022/11/25 06:32:57;;;;;;;2.40;0.90;;;;;;;11.65;46.69;98811.22;6245321;23;20178;-91
2022/11/25 06:35:22;;;;;;;2.53;0.80;;;;;;;11.85;46.98;98806.50;6245480;23;20156;-92
2022/11/25 06:37:49;;;;;;;2.80;1.00;;;;;;;11.61;46.72;98822.81;6245316;23;20154;-91
2022/11/25 06:40:16;;;;;;;3.00;1.10;;;;;;;11.66;46.45;98817.31;6246293;23;20156;-90
2022/11/25 06:42:42;;;;;;;2.67;1.20;;;;;;;11.70;46.69;98819.69;6244112;23;20160;-91
2022/11/25 06:45:08;;;;;;;2.57;0.97;;;;;;;11.74;46.54;98822.13;6246361;22;20188;-91
2022/11/25 06:47:33;;;;;;;4.70;0.73;;;;;;;11.83;46.56;98824.16;6245978;22;20171;-92
2022/11/25 06:49:59;;;;;;;2.33;0.70;;;;;;;11.83;46.67;98830.25;6245071;23;20154;-92
2022/11/25 06:52:24;;;;;;;2.10;1.00;;;;;;;11.71;46.73;98831.03;6245731;22;20157;-91
2022/11/25 06:54:50;;;;;;;2.13;0.70;;;;;;;11.82;46.89;98836.44;6245196;23;20159;-91
2022/11/25 06:57:17;;;;;;;1.93;0.80;;;;;;;11.76;46.96;98844.72;6243528;23;20154;-92
2022/11/25 06:59:44;;;;;;;1.20;0.77;;;;;;;11.93;46.95;98843.63;6242856;23;20151;-91
2022/11/25 07:02:11;;;;;;;1.27;0.70;;;;;;;11.87;46.40;98847.50;6244035;22;20570;-91
2022/11/25 07:04:37;;;;;;;1.60;0.67;;;;;;;11.76;47.15;98844.72;6243986;22;20490;-91
2022/11/25 07:07:03;;;;;;;1.70;0.70;;;;;;;11.86;47.22;98839.72;6242854;23;20619;-91
2022/11/25 07:09:29;;;;;;;2.20;0.80;;;;;;;11.80;47.13;98854.06;6243768;22;20159;-91
2022/11/25 07:11:54;;;;;;;2.63;0.90;;;;;;;11.55;47.87;98853.88;6242549;23;20154;-91
2022/11/25 07:14:19;;;;;;;1.87;0.80;;;;;;;11.70;47.76;98850.34;6245003;23;20154;-92
2022/11/25 07:16:45;;;;;;;0.77;0.47;;;;;;;11.76;47.05;98859.63;6245241;22;20161;-91
2022/11/25 07:19:14;;;;;;;1.27;0.60;;;;;;;11.73;47.46;98859.81;6274490;22;20205;-90
2022/11/25 07:21:42;;;;;;;2.77;0.97;;;;;;;11.88;47.83;98864.09;6276996;22;20164;-91
2022/11/25 07:24:10;;;;;;;1.77;0.80;;;;;;;12.17;47.03;98860.50;6276740;22;20207;-92
2022/11/25 07:26:37;;;;;;;1.00;0.50;;;;;;;12.08;46.63;98871.59;6276917;22;20173;-90
2022/11/25 07:29:06;;;;;;;2.07;0.90;;;;;;;11.85;48.16;98865.13;6276902;22;20170;-90
2022/11/25 07:31:34;;;;;;;2.40;1.00;;;;;;;12.06;47.30;98868.19;6250374;22;20600;-93
2022/11/25 07:34:17;;;;;;;3.17;0.80;;;;;;;12.08;46.93;98876.84;6250567;22;20166;-92
2022/11/25 07:36:44;;;;;;;2.73;0.73;;;;;;;12.14;46.58;98873.81;6251396;22;20138;-91
2022/11/25 07:39:15;;;;;;;2.33;0.70;;;;;;;12.10;46.72;98888.09;6250387;22;20163;-92
2022/11/25 07:41:41;;;;;;;1.87;1.07;;;;;;;12.07;46.88;98880.41;6249948;22;20182;-91
2022/11/25 07:44:09;;;;;;;2.93;0.70;;;;;;;12.24;46.37;98893.31;6276438;22;20562;-92
2022/11/25 07:46:37;;;;;;;3.87;0.93;;;;;;;12.30;46.76;98890.31;6249843;22;20618;-92
2022/11/25 07:49:06;;;;;;;1.90;1.17;;;;;;;12.19;46.04;98890.13;6276617;22;20214;-93
2022/11/25 07:51:50;;;;;;;0.63;0.53;;;;;;;12.04;46.59;98910.34;6276537;22;20152;-92
2022/11/25 07:54:16;;;;;;;1.57;0.80;;;;;;;12.34;46.77;98904.97;6250822;22;20225;-91
2022/11/25 07:56:43;;;;;;;5.83;0.90;;;;;;;12.50;46.25;98905.63;6277260;22;20144;-92
2022/11/25 07:59:12;;;;;;;2.50;0.80;;;;;;;12.38;46.07;98918.72;6250442;22;20474;-91
2022/11/25 08:01:38;;;;;;;1.20;0.60;;;;;;;12.27;46.08;98920.25;6278783;22;20170;-93
2022/11/25 08:04:05;;;;;;;1.50;0.80;;;;;;;12.14;46.60;98921.09;6252083;22;20154;-93
2022/11/25 08:06:30;;;;;;;4.47;0.80;;;;;;;12.16;46.58;98916.59;6251840;22;20184;-92
2022/11/25 08:08:56;;;;;;;1.57;0.60;;;;;;;12.21;46.41;98919.81;6278532;22;20147;-90
2022/11/25 08:11:25;;;;;;;1.70;0.80;;;;;;;12.12;46.79;98928.25;6278871;22;20151;-92
2022/11/25 08:13:51;;;;;;;2.30;1.10;;;;;;;12.23;46.66;98920.56;6278486;22;20560;-91
2022/11/25 08:16:18;;;;;;;1.77;0.53;;;;;;;12.39;46.19;98929.16;6251866;22;20212;-91
2022/11/25 08:18:44;;;;;;;2.97;0.90;;;;;;;12.26;45.99;98933.50;6278749;22;20239;-91
2022/11/25 08:21:14;;;;;;;2.47;0.70;;;;;;;12.60;45.54;98927.81;6278509;22;20178;-90
2022/11/25 08:23:47;;;;;;;1.73;0.60;;;;;;;12.78;45.57;98926.63;6251492;22;20142;-90
2022/11/25 08:26:18;;;;;;;1.77;0.90;;;;;;;12.84;44.42;98930.63;6251435;22;20261;-91
2022/11/25 08:28:44;;;;;;;3.67;1.00;;;;;;;12.82;44.71;98930.72;6278351;22;20134;-92
2022/11/25 08:31:19;;;;;;;4.70;1.23;;;;;;;12.56;45.27;98935.97;6252529;22;20235;-90
2022/11/25 08:33:46;;;;;;;1.80;0.70;;;;;;;12.56;45.14;98931.56;6278931;22;20135;-90
2022/11/25 08:36:12;;;;;;;0.60;0.37;;;;;;;12.50;45.06;98931.94;6251631;22;20178;-91
2022/11/25 08:38:38;;;;;;;1.40;0.80;;;;;;;12.71;45.38;98938.44;6251977;22;20155;-91
2022/11/25 08:41:22;;;;;;;1.70;1.00;;;;;;;12.93;45.03;98943.19;6279109;22;20212;-91
2022/11/25 08:43:48;;;;;;;1.23;0.63;;;;;;;12.81;45.18;98952.69;6251770;22;20195;-91
2022/11/25 08:46:16;;;;;;;7.37;0.80;;;;;;;12.82;45.07;98935.13;6251324;22;20172;-91
2022/11/25 08:48:43;;;;;;;2.53;1.00;;;;;;;13.01;44.91;98942.66;6251376;22;20166;-92
2022/11/25 08:51:13;;;;;;;1.13;0.70;;;;;;;13.02;44.42;98944.38;6252358;22;20155;-92
2022/11/25 08:53:40;;;;;;;1.60;0.60;;;;;;;13.03;44.60;98943.41;6278502;22;20545;-92
2022/11/25 08:56:06;;;;;;;1.47;0.50;;;;;;;13.05;44.49;98947.63;6251833;22;20144;-92
2022/11/25 08:58:32;;;;;;;0.87;0.50;;;;;;;12.74;45.10;98946.16;6278113;22;20148;-93
2022/11/25 09:00:59;;;;;;;1.80;0.60;;;;;;;13.05;44.67;98944.19;6278369;22;20478;-92
2022/11/25 09:03:24;;;;;;;3.10;1.00;;;;;;;13.30;43.79;98944.25;6278122;22;20149;-92
2022/11/25 09:05:51;;;;;;;4.73;0.70;;;;;;;13.44;43.95;98946.81;6251262;22;20171;-92
2022/11/25 09:08:17;;;;;;;3.53;1.53;;;;;;;13.89;43.57;98942.81;6251572;22;20148;-92
2022/11/25 09:10:43;;;;;;;5.73;0.90;;;;;;;13.77;43.08;98943.69;6251571;22;20178;-91
2022/11/25 09:13:09;;;;;;;1.50;0.70;;;;;;;13.82;43.25;98939.78;6278192;22;20150;-91
2022/11/25 09:15:35;;;;;;;2.00;0.80;;;;;;;13.99;42.81;98943.91;6251212;22;20148;-91
2022/11/25 09:18:06;;;;;;;2.43;0.90;;;;;;;14.40;42.25;98947.13;6278049;22;20180;-91
2022/11/25 09:20:33;;;;;;;1.60;0.70;;;;;;;14.69;41.84;98942.41;6250986;22;20595;-92
2022/11/25 09:23:00;;;;;;;1.03;0.40;;;;;;;14.74;40.83;98932.38;6277736;22;20146;-92
2022/11/25 09:25:28;;;;;;;1.47;0.70;;;;;;;14.87;40.32;98930.50;6278293;22;20146;-92
2022/11/25 09:27:55;;;;;;;1.10;0.60;;;;;;;14.52;40.51;98938.34;6251292;22;20180;-91
2022/11/25 09:30:20;;;;;;;1.30;0.50;;;;;;;14.27;40.68;98935.75;6251504;22;20232;-93
2022/11/25 09:32:50;;;;;;;1.93;0.70;;;;;;;14.58;41.66;98922.09;6277618;22;20184;-91
2022/11/25 09:35:16;;;;;;;0.70;0.60;;;;;;;14.37;40.93;98934.16;6278049;22;20155;-91
2022/11/25 09:37:42;;;;;;;1.87;0.97;;;;;;;14.15;40.73;98931.31;6251240;22;20152;-91
2022/11/25 09:40:17;;;;;;;1.67;0.73;;;;;;;14.15;41.18;98937.44;6251736;22;20163;-91
2022/11/25 09:48:46;;;;;;;1.30;0.60;;;;;;;14.49;40.27;98925.38;6278098;22;20148;-93
2022/11/25 09:51:20;;;;;;;4.70;1.60;;;;;;;14.43;40.21;98928.47;6251699;22;20500;-93
2022/11/25 09:54:05;;;;;;;3.57;1.10;;;;;;;14.74;40.32;98922.66;6277372;22;20152;-93
2022/11/25 09:56:38;;;;;;;1.63;0.60;;;;;;;14.51;39.39;98925.28;6277714;22;20213;-92
2022/11/25 09:59:24;;;;;;;2.23;1.07;;;;;;;14.53;39.73;98924.22;6278302;22;20137;-92
2022/11/25 10:02:00;;;;;;;1.50;0.70;;;;;;;14.45;40.12;98931.81;6278000;22;20163;-93
2022/11/25 10:04:36;;;;;;;1.83;0.67;;;;;;;14.72;39.46;98919.28;6251087;22;20143;-92
2022/11/25 10:07:04;;;;;;;2.43;1.07;;;;;;;14.94;38.98;98934.38;6251874;22;20469;-91
2022/11/25 10:09:34;;;;;;;1.80;0.80;;;;;;;15.23;38.80;98922.50;6251500;22;20159;-87
2022/11/25 10:12:10;;;;;;;2.50;0.90;;;;;;;15.04;39.32;98932.75;6277346;22;20146;-86
2022/11/25 10:14:41;;;;;;;1.40;0.80;;;;;;;15.16;38.20;98933.66;6250286;22;20486;-86
2022/11/25 10:17:41;;;;;;;0.90;0.53;;;;;;;15.07;38.37;98935.16;6250305;22;20156;-86
2022/11/25 10:20:25;;;;;;;5.80;0.60;;;;;;;15.11;38.32;98931.34;6277564;22;20286;-88
2022/11/25 10:22:54;;;;;;;1.30;0.50;;;;;;;15.15;37.60;98927.50;6249553;22;20457;-86
2022/11/25 10:25:26;;;;;;;1.07;0.60;;;;;;;15.27;38.06;98926.63;6276834;22;20597;-86
2022/11/25 10:27:58;;;;;;;1.87;0.67;;;;;;;15.45;37.85;98928.81;6276846;22;20193;-85
2022/11/25 10:30:49;;;;;;;2.47;1.00;;;;;;;15.53;37.20;98924.69;6277157;22;20133;-85
2022/11/25 10:33:26;;;;;;;1.40;0.70;;;;;;;15.63;37.52;98927.44;6250170;22;20218;-86
2022/11/25 10:36:08;;;;;;;1.27;0.63;;;;;;;15.77;37.44;98940.47;6276412;22;20150;-86
2022/11/25 10:38:58;;;;;;;1.00;0.60;;;;;;;15.53;37.25;98931.75;6277398;22;20145;-85
2022/11/25 10:41:36;;;;;;;1.33;0.63;;;;;;;15.73;37.22;98929.28;6249685;22;20155;-86
2022/11/25 10:44:09;;;;;;;2.90;0.90;;;;;;;16.02;36.56;98927.03;6276686;22;20135;-85
2022/11/25 10:46:49;;;;;;;1.97;0.67;;;;;;;15.92;35.70;98944.56;6250000;22;20562;-85
2022/11/25 10:49:34;;;;;;;1.57;0.73;;;;;;;16.00;36.06;98939.53;6249979;22;20151;-85
2022/11/25 10:52:00;;;;;;;2.03;0.60;;;;;;;15.73;35.84;98929.28;6249928;22;20621;-85
2022/11/25 10:54:27;;;;;;;1.33;0.43;;;;;;;15.79;36.69;98925.31;6250280;22;20156;-87
2022/11/25 10:56:57;;;;;;;0.67;0.33;;;;;;;16.27;35.66;98916.19;6276515;22;20148;-87
2022/11/25 10:59:34;;;;;;;2.70;0.80;;;;;;;16.50;34.79;98932.91;6276958;22;20160;-86
2022/11/25 11:02:12;;;;;;;2.37;0.80;;;;;;;16.28;35.34;98912.59;6276090;22;20191;-86
2022/11/25 11:04:49;;;;;;;3.80;0.80;;;;;;;16.37;35.71;98922.44;6277101;22;20567;-86
2022/11/25 11:07:15;;;;;;;2.00;0.60;;;;;;;16.18;34.58;98927.50;6276506;22;20237;-86
2022/11/25 11:09:40;;;;;;;0.63;0.40;;;;;;;15.82;35.15;98940.94;6249733;22;20151;-86
2022/11/25 11:12:27;;;;;;;2.30;0.70;;;;;;;15.94;35.67;98945.28;6249842;22;20591;-86
2022/11/25 11:15:23;;;;;;;1.43;0.80;;;;;;;15.94;36.12;98937.34;6249704;22;20222;-85
2022/11/25 11:17:49;;;;;;;1.83;0.60;;;;;;;15.93;34.90;98946.25;6276408;22;20603;-86
2022/11/25 11:20:25;;;;;;;1.90;0.73;;;;;;;15.76;36.15;98947.53;6276477;22;20173;-85
2022/11/25 11:22:55;;;;;;;2.97;0.53;;;;;;;16.01;36.38;98935.09;6276751;22;20155;-85
2022/11/25 11:25:22;;;;;;;0.90;0.53;;;;;;;15.83;35.50;98939.97;6276423;22;20152;-85
2022/11/25 11:27:48;;;;;;;2.57;0.97;;;;;;;15.95;35.53;98941.69;6276366;22;20186;-86
2022/11/25 11:30:24;;;;;;;2.30;0.50;;;;;;;15.96;34.79;98935.41;6250007;22;20502;-86
2022/11/25 11:33:06;;;;;;;1.30;0.53;;;;;;;15.62;36.37;98942.47;6276871;22;20136;-85
2022/11/25 11:35:41;;;;;;;1.83;0.70;;;;;;;16.02;35.63;98934.94;6278604;22;20136;-86
2022/11/25 11:38:32;;;;;;;1.13;0.60;;;;;;;16.19;35.36;98942.44;6251707;22;20151;-85
2022/11/25 11:41:13;;;;;;;1.50;0.80;;;;;;;16.00;34.79;98936.88;6251694;22;20557;-85
2022/11/25 11:43:55;;;;;;;0.90;0.70;;;;;;;16.01;35.51;98932.44;6278483;22;20171;-86
2022/11/25 11:46:21;;;;;;;1.40;0.70;;;;;;;15.98;35.17;98938.81;6278690;22;20167;-85
2022/11/25 11:48:54;;;;;;;1.73;0.50;;;;;;;15.86;34.81;98940.59;6278375;22;20631;-86
2022/11/25 11:51:38;;;;;;;0.53;0.47;;;;;;;16.05;35.11;98936.50;6253105;22;20639;-85
2022/11/25 11:54:27;;;;;;;0.73;0.43;;;;;;;16.29;34.95;98929.31;6251973;22;20218;-85